createdAt,value
2018-12-21T00:03:23.604Z,10.93
2018-12-21T00:08:26.759Z,11.90
2018-12-21T00:13:29.945Z,12.80
2018-12-21T00:18:33.141Z,10.47
2018-12-21T00:23:36.317Z,8.23
2018-12-21T00:28:39.480Z,11.57
2018-12-21T00:33:48.072Z,10.33
2018-12-21T00:38:56.728Z,9.43
2018-12-21T00:44:04.122Z,9.97
2018-12-21T00:49:07.330Z,10.73
2018-12-21T00:54:10.523Z,9.33
2018-12-21T00:59:13.664Z,11.40
2018-12-21T01:04:16.806Z,8.60
2018-12-21T01:09:20.055Z,8.53
2018-12-21T01:14:23.220Z,8.37
2018-12-21T01:19:26.410Z,9.40
2018-12-21T01:24:29.514Z,6.87
2018-12-21T01:29:32.728Z,6.00
2018-12-21T01:34:35.903Z,7.17
2018-12-21T01:39:39.022Z,8.57
2018-12-21T01:44:42.160Z,7.03
2018-12-21T01:49:45.276Z,8.90
2018-12-21T01:54:48.411Z,4.63
2018-12-21T01:59:51.610Z,8.20
2018-12-21T02:04:54.736Z,6.37
2018-12-21T02:09:57.919Z,7.27
2018-12-21T02:15:01.059Z,5.93
2018-12-21T02:20:04.461Z,7.03
2018-12-21T02:25:07.607Z,6.37
2018-12-21T02:30:10.788Z,4.43
2018-12-21T02:35:13.948Z,3.23
2018-12-21T02:40:17.105Z,4.63
2018-12-21T02:45:20.376Z,3.27
2018-12-21T02:50:24.002Z,2.53
2018-12-21T02:55:27.155Z,4.30
2018-12-21T03:00:30.300Z,3.20
2018-12-21T03:05:33.424Z,3.90
2018-12-21T03:10:36.587Z,4.97
2018-12-21T03:15:39.744Z,2.10
2018-12-21T03:20:42.831Z,2.10
2018-12-21T03:25:45.985Z,2.53
2018-12-21T03:30:49.105Z,1.13
2018-12-21T03:35:52.286Z,3.07
2018-12-21T03:40:55.416Z,4.40
2018-12-21T03:45:58.464Z,9.60
2018-12-21T03:51:01.641Z,7.57
2018-12-21T03:56:04.865Z,8.00
2018-12-21T04:01:08.012Z,10.03
2018-12-21T04:06:11.084Z,6.47
2018-12-21T04:11:14.558Z,5.80
2018-12-21T04:16:17.756Z,5.83
2018-12-21T04:21:20.909Z,6.27
2018-12-21T04:26:24.062Z,6.43
2018-12-21T04:31:27.177Z,6.10
2018-12-21T04:36:30.354Z,5.07
2018-12-21T04:41:33.436Z,6.70
2018-12-21T04:51:45.155Z,10.30
2018-12-21T04:56:48.756Z,7.33
2018-12-21T05:01:51.858Z,14.93
2018-12-21T05:06:55.037Z,7.60
2018-12-21T05:11:58.178Z,6.53
2018-12-21T05:17:01.281Z,7.20
2018-12-21T05:22:04.404Z,7.00
2018-12-21T05:27:07.814Z,8.57
2018-12-21T05:32:11.191Z,7.43
2018-12-21T05:37:14.575Z,7.60
2018-12-21T05:42:18.023Z,9.03
2018-12-21T05:47:21.494Z,8.80
2018-12-21T05:52:24.863Z,10.90
2018-12-21T05:57:28.251Z,12.77
2018-12-21T06:02:31.703Z,16.13
2018-12-21T06:07:35.169Z,13.53
2018-12-21T06:12:38.524Z,18.87
2018-12-21T06:17:41.873Z,18.93
2018-12-21T06:22:45.264Z,16.67
2018-12-21T06:27:48.401Z,18.43
2018-12-21T06:32:51.623Z,15.17
2018-12-21T06:37:54.775Z,16.13
2018-12-21T06:42:57.852Z,17.90
2018-12-21T06:48:00.986Z,15.87
2018-12-21T06:53:04.149Z,19.73
2018-12-21T06:58:07.268Z,15.77
2018-12-21T07:03:17.026Z,18.77
2018-12-21T07:08:15.673Z,17.60
2018-12-21T07:13:18.811Z,16.97
2018-12-21T07:18:22.049Z,17.67
2018-12-21T07:23:27.311Z,14.73
2018-12-21T07:28:30.326Z,18.67
2018-12-21T07:33:33.461Z,18.90
2018-12-21T07:38:36.621Z,14.83
2018-12-21T07:43:39.732Z,14.80
2018-12-21T07:48:42.881Z,17.50
2018-12-21T07:53:45.995Z,12.00
2018-12-21T07:58:56.903Z,11.77
2018-12-21T08:03:54.411Z,9.73
2018-12-21T08:08:57.591Z,14.47
2018-12-21T08:14:00.831Z,8.97
2018-12-21T08:19:04.005Z,14.00
2018-12-21T08:29:16.654Z,10.60
2018-12-21T08:34:19.813Z,18.20
2018-12-21T08:39:22.988Z,15.47
2018-12-21T08:44:26.259Z,16.93
2018-12-21T08:49:29.638Z,10.93
2018-12-21T08:54:32.793Z,11.27
2018-12-21T08:59:35.941Z,12.57
2018-12-21T09:04:39.163Z,13.77
2018-12-21T09:09:42.467Z,13.67
2018-12-21T09:14:45.741Z,10.40
2018-12-21T09:19:48.972Z,10.07
2018-12-21T09:24:52.179Z,9.47
2018-12-21T09:29:55.462Z,11.97
2018-12-21T09:34:58.572Z,13.57
2018-12-21T09:40:01.914Z,12.23
2018-12-21T09:45:05.325Z,11.50
2018-12-21T09:50:09.772Z,11.30
2018-12-21T09:55:12.870Z,9.80
2018-12-21T10:00:16.034Z,15.73
2018-12-21T10:05:19.323Z,10.63
2018-12-21T10:10:22.500Z,11.83
2018-12-21T10:15:25.662Z,9.87
2018-12-21T10:20:28.873Z,11.10
2018-12-21T10:25:32.002Z,11.20
2018-12-21T10:30:35.072Z,12.80
2018-12-21T10:35:38.246Z,8.03
2018-12-21T10:40:41.372Z,14.77
2018-12-21T10:45:44.512Z,16.83
2018-12-21T10:50:47.642Z,10.07
2018-12-21T10:55:50.763Z,13.63
2018-12-21T11:00:53.960Z,9.80
2018-12-21T11:05:57.236Z,10.27
2018-12-21T11:11:00.385Z,10.53
2018-12-21T11:16:03.601Z,11.23
2018-12-21T11:21:06.737Z,9.37
2018-12-21T11:26:10.071Z,7.03
2018-12-21T11:31:13.187Z,6.07
2018-12-21T11:36:16.444Z,9.13
2018-12-21T11:41:20.186Z,7.00
2018-12-21T11:46:23.290Z,7.53
2018-12-21T11:51:26.364Z,7.40
2018-12-21T11:56:29.529Z,6.97
2018-12-21T12:01:32.654Z,7.63
2018-12-21T12:06:35.787Z,9.53
2018-12-21T12:11:38.934Z,8.27
2018-12-21T12:16:42.146Z,9.77
2018-12-21T12:21:45.304Z,8.63
2018-12-21T12:26:48.436Z,12.80
2018-12-21T12:31:57.235Z,9.97
2018-12-21T12:37:00.371Z,11.53
2018-12-21T12:42:03.804Z,9.90
2018-12-21T12:47:07.091Z,8.20
2018-12-21T12:52:10.210Z,12.00
2018-12-21T12:57:13.405Z,10.37
2018-12-21T13:02:16.515Z,9.30
2018-12-21T13:07:19.698Z,7.90
2018-12-21T13:12:22.830Z,8.23
2018-12-21T13:17:25.961Z,6.27
2018-12-21T13:22:29.128Z,4.83
2018-12-21T13:27:32.272Z,5.23
2018-12-21T13:32:35.405Z,3.60
2018-12-21T13:37:38.542Z,3.67
2018-12-21T13:42:41.669Z,3.50
2018-12-21T13:47:44.895Z,3.10
2018-12-21T13:52:49.945Z,2.87
2018-12-21T13:57:53.052Z,3.77
2018-12-21T14:02:56.144Z,3.67
2018-12-21T14:07:59.258Z,4.63
2018-12-21T14:13:02.400Z,3.67
2018-12-21T14:18:05.516Z,3.90
2018-12-21T14:23:08.723Z,2.17
2018-12-21T14:28:11.840Z,3.63
2018-12-21T14:33:14.971Z,5.87
2018-12-21T14:38:18.125Z,3.57
2018-12-21T14:43:21.309Z,4.07
2018-12-21T14:48:24.493Z,3.30
2018-12-21T14:53:27.667Z,4.27
2018-12-21T14:58:30.958Z,4.47
2018-12-21T15:03:34.090Z,4.47
2018-12-21T15:08:37.202Z,4.47
2018-12-21T15:13:40.312Z,3.33
2018-12-21T15:18:43.434Z,3.83
2018-12-21T15:23:46.774Z,2.97
2018-12-21T15:28:49.954Z,3.67
2018-12-21T15:33:53.038Z,2.70
2018-12-21T15:38:56.164Z,3.23
2018-12-21T15:43:59.344Z,3.43
2018-12-21T15:49:02.455Z,3.10
2018-12-21T15:54:06.604Z,2.00
2018-12-21T15:59:10.064Z,1.93
2018-12-21T16:04:13.316Z,3.87
2018-12-21T16:09:16.558Z,3.90
2018-12-21T16:14:19.807Z,1.73
2018-12-21T16:19:23.056Z,2.43
2018-12-21T16:24:26.165Z,2.30
2018-12-21T16:29:29.319Z,1.97
2018-12-21T16:34:32.668Z,1.90
2018-12-21T16:39:35.872Z,1.20
2018-12-21T16:44:39.067Z,1.43
2018-12-21T16:49:42.340Z,1.77
2018-12-21T16:54:45.472Z,1.03
2018-12-21T16:59:48.690Z,1.17
2018-12-21T17:04:51.839Z,1.20
2018-12-21T17:09:55.793Z,2.30
2018-12-21T17:14:58.990Z,1.87
2018-12-21T17:20:04.444Z,6.87
2018-12-21T17:25:11.411Z,1.70
2018-12-21T17:30:15.208Z,1.73
2018-12-21T17:35:19.288Z,2.47
2018-12-21T17:40:25.463Z,3.33
2018-12-21T17:45:29.014Z,1.50
2018-12-21T17:50:33.988Z,3.27
2018-12-21T17:55:44.358Z,0.80
2018-12-21T18:00:47.715Z,1.20
2018-12-21T18:05:52.474Z,1.40
2018-12-21T18:10:57.401Z,1.20
2018-12-21T18:16:01.968Z,0.70
2018-12-21T18:21:07.919Z,1.30
2018-12-21T18:26:11.207Z,1.50
2018-12-21T18:31:25.793Z,5.73
2018-12-21T18:36:28.993Z,1.23
2018-12-21T18:41:32.256Z,0.80
2018-12-21T18:46:35.422Z,1.60
2018-12-21T18:51:38.580Z,0.80
2018-12-21T18:56:52.951Z,0.53
2018-12-21T19:01:56.180Z,1.57
2018-12-21T19:06:59.360Z,0.60
2018-12-21T19:12:02.514Z,0.63
2018-12-21T19:17:06.003Z,0.50
2018-12-21T19:22:10.693Z,1.27
2018-12-21T19:27:14.487Z,1.00
2018-12-21T19:32:17.634Z,1.80
2018-12-21T19:37:20.844Z,1.47
2018-12-21T19:42:24.544Z,1.27
2018-12-21T19:47:28.149Z,0.40
2018-12-21T19:52:31.702Z,1.77
2018-12-21T19:57:35.368Z,1.20
2018-12-21T20:02:39.062Z,0.73
2018-12-21T20:07:42.740Z,1.63
2018-12-21T20:12:45.988Z,1.10
2018-12-21T20:17:49.092Z,0.77
2018-12-21T20:22:52.258Z,0.70
2018-12-21T20:27:55.499Z,1.53
2018-12-21T20:32:58.637Z,0.50
2018-12-21T20:38:02.481Z,0.80
2018-12-21T20:43:06.669Z,1.67
2018-12-21T20:48:09.998Z,1.33
2018-12-21T20:53:13.485Z,1.37
2018-12-21T20:58:25.059Z,0.77
2018-12-21T21:03:28.252Z,2.07
2018-12-21T21:08:31.572Z,1.23
2018-12-21T21:13:34.867Z,3.70
2018-12-21T21:18:38.272Z,3.83
2018-12-21T21:23:42.025Z,4.60
2018-12-21T21:28:45.573Z,1.00
2018-12-21T21:33:49.755Z,7.80
2018-12-21T21:38:53.310Z,7.03
2018-12-21T21:43:56.748Z,7.67
2018-12-21T21:49:00.474Z,7.57
2018-12-21T21:54:03.787Z,3.17
2018-12-21T21:59:07.685Z,3.73
2018-12-21T22:04:11.180Z,5.23
2018-12-21T22:09:14.745Z,2.20
2018-12-21T22:14:18.200Z,5.13
2018-12-21T22:19:21.425Z,8.07
2018-12-21T22:24:24.652Z,5.87
2018-12-21T22:29:28.222Z,8.17
2018-12-21T22:34:31.654Z,9.83
2018-12-21T22:39:35.611Z,11.93
2018-12-21T22:44:39.257Z,11.53
2018-12-21T22:49:42.910Z,10.13
2018-12-21T23:00:02.535Z,8.30
2018-12-21T23:05:07.383Z,7.83
2018-12-21T23:10:10.910Z,7.37
2018-12-21T23:20:30.076Z,4.90
2018-12-21T23:25:34.444Z,5.40
2018-12-21T23:30:38.859Z,5.53
2018-12-21T23:35:43.422Z,7.47
2018-12-21T23:40:46.738Z,9.07
2018-12-21T23:45:50.658Z,13.80
2018-12-21T23:50:56.245Z,10.10
2018-12-21T23:55:59.946Z,9.27
